South Erie, Pennsylvania
Current Conditions -  °F | °C
As of 11:51 PM on Friday 28 Nov 2014 (Local Time) from KERI Reporting Station
Light Snow Light Snow  
Wind Chill: 14°   Ceiling: 3100
Heat Index: 24°   Visibility: 3mi
Dew Point: 19°   Wind: 9mph
Humidity: 81%   Direction: 170°S
Pressure: 30.18"   Gusts: NA
Location:  42.0975°N, 80.0932°W
Report Text: KERI 290451Z 17008KT 3SM -SN OVC031 M04/M07 A3018 RMK AO2 SLP228 P0001 T10441072 410111044
Loading
Personal Weather Stations






























Interactive Weather Map New forecast layout! Learn more

10-Day Weather Forecast

Advertisements
Track Severe Weather on mobile